Time;durP1;ratioP1;P1;durP2;ratioP2;P2;SDS_P1;SDS_P2;PMS_P1;PMS_P2;Temp;Humidity;BMP_temperature;BMP_pressure;BME280_temperature;BME280_humidity;BME280_pressure;Samples;Min_cycle;Max_cycle;Signal;HPM_P1;HPM_P2
2020/12/20 00:03:09;;;;;;;8.97;8.17;;;;;;;11.38;58.30;101594.25;6071397;29;20567;-61
2020/12/20 00:06:35;;;;;;;7.67;6.90;;;;;;;11.40;58.44;101587.31;6073179;29;20265;-61
2020/12/20 00:09:56;;;;;;;6.47;5.87;;;;;;;11.52;57.89;101587.31;6079695;29;20248;-61
2020/12/20 00:13:17;;;;;;;6.30;5.70;;;;;;;11.56;57.88;101581.22;6072775;29;20233;-62
2020/12/20 00:16:39;;;;;;;7.03;6.33;;;;;;;11.57;57.84;101580.34;6071959;29;20237;-61
2020/12/20 00:19:59;;;;;;;6.23;5.63;;;;;;;11.44;58.34;101581.22;6074159;29;20245;-61
2020/12/20 00:23:20;;;;;;;6.93;6.33;;;;;;;11.43;58.44;101587.31;6070718;29;20261;-61
2020/12/20 00:26:43;;;;;;;6.77;5.43;;;;;;;11.53;57.86;101594.25;6071018;29;20320;-62
2020/12/20 00:30:05;;;;;;;6.33;5.70;;;;;;;11.67;57.56;101585.53;6079922;29;20327;-62
2020/12/20 00:33:26;;;;;;;7.63;5.87;;;;;;;11.41;57.99;101582.06;6072064;29;20237;-62
2020/12/20 00:36:48;;;;;;;6.80;6.10;;;;;;;11.63;57.84;101585.56;6070049;29;20300;-61
2020/12/20 00:40:08;;;;;;;6.80;6.00;;;;;;;11.38;58.10;101587.31;6074830;29;20229;-63
2020/12/20 00:43:29;;;;;;;6.40;5.80;;;;;;;11.27;58.82;101591.66;6073157;29;20492;-62
2020/12/20 00:46:50;;;;;;;6.47;5.87;;;;;;;11.60;57.67;101595.97;6075872;29;20240;-63
2020/12/20 00:50:12;;;;;;;8.27;7.23;;;;;;;11.17;58.70;101596.00;6070274;29;20266;-60
2020/12/20 00:53:32;;;;;;;5.87;5.40;;;;;;;11.17;58.51;101593.38;6082765;29;20229;-62
2020/12/20 00:56:53;;;;;;;6.60;5.80;;;;;;;11.34;58.55;101602.94;6076413;29;20236;-61
2020/12/20 01:00:13;;;;;;;6.70;6.13;;;;;;;11.20;58.75;101601.19;6075733;29;20241;-61
2020/12/20 01:03:33;;;;;;;7.10;6.40;;;;;;;11.06;58.85;101605.53;6074197;29;20245;-60
2020/12/20 01:06:55;;;;;;;8.10;6.53;;;;;;;10.90;59.51;101611.59;6089081;29;20387;-61
2020/12/20 01:10:18;;;;;;;7.87;6.93;;;;;;;11.18;58.84;101615.09;6075269;29;20233;-61
2020/12/20 01:13:39;;;;;;;6.43;5.83;;;;;;;10.99;59.24;101609.88;6074663;29;20237;-61
2020/12/20 01:17:03;;;;;;;6.30;5.67;;;;;;;11.12;58.50;101615.97;6075402;29;20241;-61
2020/12/20 01:20:24;;;;;;;5.40;5.00;;;;;;;10.96;58.87;101617.69;6088083;29;20237;-61
2020/12/20 01:23:46;;;;;;;6.70;6.00;;;;;;;10.95;59.09;101615.06;6084525;29;20241;-61
2020/12/20 01:27:06;;;;;;;6.00;5.40;;;;;;;11.08;58.56;101611.63;6065715;29;20245;-63
2020/12/20 01:30:28;;;;;;;6.10;5.20;;;;;;;11.10;58.38;101609.00;6072781;29;20261;-62
2020/12/20 01:33:53;;;;;;;8.33;5.97;;;;;;;10.83;59.39;101606.34;6075475;29;20253;-62
2020/12/20 01:37:13;;;;;;;7.10;5.40;;;;;;;11.00;58.50;101600.31;6084342;29;20658;-61
2020/12/20 01:40:51;;;;;;;5.60;5.10;;;;;;;10.97;58.90;101603.78;6074479;29;20237;-62
2020/12/20 01:44:11;;;;;;;6.00;5.43;;;;;;;11.13;58.16;101606.44;6078673;29;20240;-60
2020/12/20 01:47:36;;;;;;;9.17;6.17;;;;;;;11.18;58.01;101602.94;6075942;29;20248;-62
2020/12/20 01:51:03;;;;;;;6.70;5.63;;;;;;;11.18;57.88;101613.34;6075165;29;20348;-61
2020/12/20 01:54:24;;;;;;;6.73;6.07;;;;;;;10.94;58.71;101618.56;6066499;29;20233;-61
2020/12/20 01:57:55;;;;;;;5.30;4.80;;;;;;;10.52;60.10;101625.34;6076396;29;20256;-61
2020/12/20 02:01:45;;;;;;;6.20;5.60;;;;;;;10.61;59.75;101620.19;6070951;29;20237;-63
2020/12/20 02:05:29;;;;;;;7.00;6.33;;;;;;;10.53;59.77;101606.28;6073536;29;20667;-61
2020/12/20 02:08:49;;;;;;;6.27;5.67;;;;;;;10.54;59.62;101611.47;6085570;29;20238;-60
2020/12/20 02:12:11;;;;;;;7.37;6.37;;;;;;;10.55;59.76;101615.81;6085519;29;20241;-60
2020/12/20 02:15:42;;;;;;;6.73;6.13;;;;;;;10.18;60.58;101614.75;6084144;29;20256;-62
2020/12/20 02:19:02;;;;;;;6.43;5.83;;;;;;;10.31;60.51;101616.56;6083057;29;20508;-62
2020/12/20 02:22:24;;;;;;;8.80;6.33;;;;;;;10.34;60.16;101605.31;6072378;29;20627;-63
2020/12/20 02:25:46;;;;;;;6.70;6.10;;;;;;;10.44;60.02;101602.75;6072588;29;20236;-62
2020/12/20 02:29:14;;;;;;;7.43;6.83;;;;;;;10.30;60.44;101604.44;6074146;29;20241;-62
2020/12/20 02:32:34;;;;;;;6.23;5.70;;;;;;;10.32;59.88;101602.69;6080128;29;20241;-63
2020/12/20 02:35:55;;;;;;;6.63;5.80;;;;;;;10.41;59.95;101610.56;6086441;29;20658;-62
2020/12/20 02:39:16;;;;;;;6.87;5.73;;;;;;;10.39;60.21;101612.28;6078778;29;20245;-61
2020/12/20 02:42:55;;;;;;;7.27;6.10;;;;;;;10.47;59.23;101612.31;6072077;29;20632;-60
2020/12/20 02:46:16;;;;;;;7.03;6.33;;;;;;;10.21;60.25;101606.94;6074320;29;20237;-62
2020/12/20 02:49:43;;;;;;;7.00;6.00;;;;;;;9.90;60.88;101608.50;6075229;29;20236;-61
2020/12/20 02:53:26;;;;;;;6.83;6.00;;;;;;;10.14;60.32;101607.78;6068443;29;20229;-63
2020/12/20 02:56:47;;;;;;;6.67;6.07;;;;;;;10.31;60.28;101606.16;6071289;29;20238;-62
2020/12/20 03:00:27;;;;;;;6.93;6.23;;;;;;;10.55;58.78;101607.16;6070825;29;20233;-62
2020/12/20 03:03:49;;;;;;;8.03;6.10;;;;;;;10.40;59.31;101605.34;6072158;29;20233;-61
2020/12/20 03:07:11;;;;;;;7.53;6.00;;;;;;;10.33;59.87;101603.56;6072451;29;20252;-61
2020/12/20 03:10:32;;;;;;;6.40;5.80;;;;;;;10.45;59.24;101601.03;6078061;29;20240;-62
2020/12/20 03:13:54;;;;;;;6.37;5.77;;;;;;;10.44;59.69;101597.53;6073365;29;20382;-62
2020/12/20 03:17:14;;;;;;;6.57;5.93;;;;;;;10.57;59.08;101602.81;6085141;29;20275;-61
2020/12/20 03:20:35;;;;;;;6.37;5.37;;;;;;;10.38;59.39;101602.72;6082152;29;20237;-61
2020/12/20 03:24:00;;;;;;;7.27;5.40;;;;;;;10.39;59.49;101596.66;6073084;29;20640;-62
2020/12/20 03:27:56;;;;;;;4.93;4.47;;;;;;;10.29;60.14;101597.44;6075195;29;20570;-61
2020/12/20 03:31:41;;;;;;;6.40;5.80;;;;;;;10.07;60.41;101593.88;6073499;29;20229;-60
2020/12/20 03:35:22;;;;;;;5.87;5.37;;;;;;;10.22;60.45;101598.28;6068620;29;20221;-62
2020/12/20 03:38:54;;;;;;;6.57;5.47;;;;;;;10.36;59.60;101601.84;6082563;29;20562;-62
2020/12/20 03:42:15;;;;;;;7.53;4.97;;;;;;;10.62;59.02;101595.88;6082160;29;20228;-62
2020/12/20 03:45:36;;;;;;;6.00;5.50;;;;;;;10.55;59.16;101597.59;6060089;29;20237;-62
2020/12/20 03:48:58;;;;;;;6.60;6.00;;;;;;;10.69;58.50;101587.22;6070568;29;20241;-61
2020/12/20 03:52:18;;;;;;;5.10;4.60;;;;;;;10.43;59.31;101597.56;6070860;29;20572;-63
2020/12/20 03:55:54;;;;;;;6.10;5.60;;;;;;;10.63;58.67;101608.03;6065645;29;20236;-60
2020/12/20 03:59:14;;;;;;;5.33;4.87;;;;;;;10.68;58.49;101606.28;6070511;29;20233;-62
2020/12/20 04:02:36;;;;;;;5.93;4.87;;;;;;;10.48;59.27;101624.47;6076010;29;20598;-61
2020/12/20 04:05:58;;;;;;;5.30;4.80;;;;;;;10.59;59.14;101621.91;6073486;29;20593;-61
2020/12/20 04:09:19;;;;;;;5.60;5.10;;;;;;;10.56;59.40;101629.72;6086758;29;20501;-62
2020/12/20 04:12:49;;;;;;;7.13;6.43;;;;;;;10.51;59.37;101628.84;6071133;29;20304;-62
2020/12/20 04:16:11;;;;;;;5.57;5.07;;;;;;;10.38;59.50;101633.97;6083458;29;20257;-60
2020/12/20 04:19:32;;;;;;;6.30;5.73;;;;;;;10.49;59.43;101625.31;6075939;29;20225;-62
2020/12/20 04:23:00;;;;;;;8.33;5.10;;;;;;;10.65;59.00;101624.53;6089914;29;21410;-60
2020/12/20 04:26:27;;;;;;;6.00;5.50;;;;;;;10.66;59.32;101613.25;6074142;29;20233;-63
2020/12/20 04:30:17;;;;;;;5.33;4.83;;;;;;;10.65;58.93;101619.34;6076415;29;20524;-61
2020/12/20 04:33:39;;;;;;;5.10;4.60;;;;;;;10.38;59.97;101617.50;6090018;29;20328;-63
2020/12/20 04:37:06;;;;;;;5.13;4.70;;;;;;;10.63;59.45;101608.03;6088054;29;20241;-60
2020/12/20 04:40:39;;;;;;;6.07;5.43;;;;;;;10.69;58.68;101612.41;6086654;29;20237;-62
2020/12/20 04:44:00;;;;;;;5.30;4.90;;;;;;;10.62;59.05;101611.50;6081908;29;20235;-62
2020/12/20 04:47:23;;;;;;;7.00;5.97;;;;;;;10.76;58.48;101603.72;6080852;29;20242;-62
2020/12/20 04:50:48;;;;;;;6.27;5.67;;;;;;;10.69;58.72;101608.06;6071051;29;20229;-62
2020/12/20 04:54:09;;;;;;;5.40;4.93;;;;;;;10.67;58.71;101615.00;6077039;29;20240;-62
2020/12/20 04:57:34;;;;;;;5.33;4.90;;;;;;;10.46;59.85;101621.00;6086110;29;20237;-61
2020/12/20 05:00:57;;;;;;;5.30;4.80;;;;;;;10.52;59.45;101623.63;6087781;29;20328;-62
2020/12/20 05:04:18;;;;;;;5.23;4.73;;;;;;;10.72;58.68;101630.63;6082545;29;20260;-62
2020/12/20 05:07:39;;;;;;;5.97;4.80;;;;;;;10.82;58.49;101620.25;6099931;29;20665;-63
2020/12/20 05:11:02;;;;;;;6.90;6.30;;;;;;;10.59;59.32;101629.72;6074188;29;20229;-61
2020/12/20 05:14:33;;;;;;;6.20;5.60;;;;;;;10.30;59.79;101625.25;6074337;29;20241;-62
2020/12/20 05:18:08;;;;;;;7.70;7.00;;;;;;;10.71;58.91;101634.97;6083410;29;20246;-61
2020/12/20 05:21:34;;;;;;;6.00;5.40;;;;;;;10.56;59.14;101634.91;6067716;29;20679;-62
2020/12/20 05:24:55;;;;;;;5.20;4.77;;;;;;;10.63;58.96;101631.47;6086435;29;20233;-61
2020/12/20 05:28:21;;;;;;;6.03;5.53;;;;;;;10.44;59.31;101628.78;6072560;29;20237;-61
2020/12/20 05:31:50;;;;;;;6.10;5.60;;;;;;;10.27;60.07;101630.41;6083272;29;20233;-61
2020/12/20 05:35:22;;;;;;;6.20;5.70;;;;;;;10.23;60.03;101623.44;6075893;29;20241;-62
2020/12/20 05:38:42;;;;;;;6.43;5.83;;;;;;;10.40;59.66;101623.56;6072887;29;20320;-60
2020/12/20 05:42:09;;;;;;;6.80;6.20;;;;;;;10.23;60.20;101620.84;6074183;29;20233;-61
2020/12/20 05:45:33;;;;;;;5.90;4.90;;;;;;;10.34;59.60;101627.00;6072722;29;20332;-62
2020/12/20 05:49:14;;;;;;;6.00;5.40;;;;;;;10.36;59.63;101634.84;6063224;29;20237;-61
2020/12/20 05:52:34;;;;;;;5.70;5.20;;;;;;;10.50;59.35;101642.72;6084638;29;20244;-61
2020/12/20 05:55:55;;;;;;;5.87;5.37;;;;;;;10.48;59.72;101639.22;6073410;29;20636;-61
2020/12/20 05:59:16;;;;;;;5.53;5.13;;;;;;;10.10;60.89;101637.25;6074962;29;20237;-62
2020/12/20 06:02:37;;;;;;;6.40;5.90;;;;;;;10.10;60.65;101642.47;6068252;29;20701;-61
2020/12/20 06:06:01;;;;;;;5.67;5.17;;;;;;;10.17;60.64;101644.25;6077944;29;20264;-62
2020/12/20 06:09:25;;;;;;;6.00;5.50;;;;;;;10.21;60.40;101646.00;6073038;29;20240;-61
2020/12/20 06:12:49;;;;;;;7.07;4.80;;;;;;;10.14;60.79;101645.09;6069316;29;20225;-61
2020/12/20 06:16:11;;;;;;;6.10;5.50;;;;;;;10.14;60.79;101649.41;6076265;29;20237;-61
2020/12/20 06:19:47;;;;;;;5.83;5.30;;;;;;;10.25;59.99;101640.84;6087055;29;20611;-61
2020/12/20 06:23:08;;;;;;;6.27;5.70;;;;;;;10.17;60.33;101644.25;6074553;29;20225;-61
2020/12/20 06:26:33;;;;;;;6.63;6.03;;;;;;;10.23;59.95;101642.53;6075671;29;20236;-62
2020/12/20 06:29:55;;;;;;;6.33;5.53;;;;;;;10.09;60.65;101648.53;6076450;29;20248;-62
2020/12/20 06:33:32;;;;;;;5.70;5.20;;;;;;;10.27;60.00;101651.22;6075198;29;20240;-62
2020/12/20 06:36:55;;;;;;;5.97;4.77;;;;;;;10.39;59.79;101645.25;6071093;29;20260;-62
2020/12/20 06:40:40;;;;;;;5.40;4.90;;;;;;;10.37;59.85;101649.59;6074698;29;20232;-62
2020/12/20 06:44:00;;;;;;;5.50;5.00;;;;;;;10.54;59.50;101640.13;6067650;29;20225;-61
2020/12/20 06:47:40;;;;;;;5.73;5.13;;;;;;;10.41;59.67;101644.41;6066695;29;20256;-62
2020/12/20 06:51:01;;;;;;;6.43;5.83;;;;;;;10.11;60.09;101644.22;6073130;29;20233;-62
2020/12/20 06:54:24;;;;;;;6.13;5.63;;;;;;;10.36;59.54;101640.91;6074029;29;20233;-62
2020/12/20 06:58:16;;;;;;;6.23;5.63;;;;;;;10.69;58.50;101639.31;6070390;29;20240;-60
2020/12/20 07:01:38;;;;;;;6.17;5.67;;;;;;;10.38;59.72;101644.38;6066599;29;21285;-63
2020/12/20 07:04:59;;;;;;;5.93;5.33;;;;;;;10.53;59.28;101645.34;6064041;29;20263;-60
2020/12/20 07:08:22;;;;;;;6.47;5.87;;;;;;;10.50;59.47;101647.91;6073390;29;20245;-62
2020/12/20 07:11:47;;;;;;;6.53;5.93;;;;;;;10.49;59.33;101647.06;6083792;29;20233;-62
2020/12/20 07:15:43;;;;;;;5.60;5.17;;;;;;;10.36;59.54;101638.31;6073400;29;20328;-62
2020/12/20 07:19:04;;;;;;;7.37;5.53;;;;;;;10.49;58.97;101641.84;6071227;29;20536;-62
2020/12/20 07:22:24;;;;;;;5.60;5.20;;;;;;;10.76;58.37;101651.50;6073124;29;20236;-62
2020/12/20 07:25:47;;;;;;;7.70;6.00;;;;;;;10.63;58.65;101650.56;6070474;29;20237;-60
2020/12/20 07:29:08;;;;;;;6.20;5.70;;;;;;;10.47;59.08;101654.00;6073472;29;20523;-62
2020/12/20 07:32:31;;;;;;;7.43;5.70;;;;;;;10.12;60.16;101659.84;6072437;29;20237;-61
2020/12/20 07:35:52;;;;;;;6.40;5.90;;;;;;;10.36;59.38;101648.72;6071458;29;20258;-61
2020/12/20 07:39:13;;;;;;;7.07;6.37;;;;;;;10.28;59.65;101653.00;6071861;29;20531;-61
2020/12/20 07:42:33;;;;;;;5.77;5.23;;;;;;;9.96;60.78;101661.44;6070738;29;20264;-62
2020/12/20 07:45:59;;;;;;;6.30;5.80;;;;;;;10.19;59.53;101668.53;6076586;29;20241;-61
2020/12/20 07:49:20;;;;;;;7.23;6.63;;;;;;;10.09;60.39;101671.97;6068354;29;20224;-61
2020/12/20 07:52:41;;;;;;;8.50;6.37;;;;;;;10.14;60.17;101671.13;6074305;29;20237;-62
2020/12/20 07:56:01;;;;;;;6.47;5.87;;;;;;;10.40;59.40;101670.44;6075754;29;20236;-62
2020/12/20 07:59:22;;;;;;;6.20;5.70;;;;;;;10.36;59.16;101682.56;6073966;29;20236;-61
2020/12/20 08:02:42;;;;;;;7.63;6.93;;;;;;;10.36;59.03;101677.34;6073403;29;20220;-60
2020/12/20 08:06:05;;;;;;;6.33;5.73;;;;;;;10.10;60.36;101673.69;6079472;29;20571;-62
2020/12/20 08:09:27;;;;;;;5.93;5.43;;;;;;;10.16;60.03;101673.75;6077787;29;20249;-61
2020/12/20 08:12:52;;;;;;;6.70;6.10;;;;;;;10.07;60.09;101668.47;6064076;29;20240;-60
2020/12/20 08:16:20;;;;;;;6.90;6.27;;;;;;;9.97;nan;101684.03;6071074;29;20236;-62
2020/12/20 08:19:41;;;;;;;5.57;5.17;;;;;;;10.25;59.54;101697.22;6074779;29;20662;-60
2020/12/20 08:23:04;;;;;;;6.73;5.97;;;;;;;10.09;59.96;101700.59;6076826;29;20244;-62
2020/12/20 08:26:31;;;;;;;7.87;6.27;;;;;;;10.30;59.32;101711.19;6075981;29;20327;-62
2020/12/20 08:29:53;;;;;;;9.57;6.67;;;;;;;9.92;nan;101709.13;6074705;29;20237;-63
2020/12/20 08:33:14;;;;;;;7.00;6.30;;;;;;;10.08;60.20;101696.22;6073467;29;20229;-62
2020/12/20 08:36:42;;;;;;;7.33;6.00;;;;;;;10.60;58.74;101707.88;6071679;29;20236;-62
2020/12/20 08:40:12;;;;;;;7.63;6.83;;;;;;;10.21;59.38;101698.06;6067760;29;20232;-61
2020/12/20 08:43:32;;;;;;;6.73;6.13;;;;;;;10.34;58.98;101699.91;6070780;29;20236;-61
2020/12/20 08:46:53;;;;;;;7.43;6.40;;;;;;;10.26;59.48;101693.78;6072540;29;20607;-61
2020/12/20 08:50:15;;;;;;;7.60;6.83;;;;;;;10.10;59.84;101692.81;6071406;29;20642;-62
2020/12/20 08:53:37;;;;;;;8.00;6.60;;;;;;;10.15;59.34;101693.69;6071746;29;20511;-62
2020/12/20 08:57:00;;;;;;;7.07;6.00;;;;;;;10.44;59.02;101691.28;6070730;29;20229;-60
2020/12/20 09:00:20;;;;;;;6.97;6.37;;;;;;;10.26;59.23;101685.97;6069867;29;20237;-63
2020/12/20 09:03:41;;;;;;;8.47;7.67;;;;;;;10.31;59.47;101678.19;6069793;29;20237;-62
2020/12/20 09:07:08;;;;;;;8.87;7.90;;;;;;;10.31;59.40;101683.41;6071216;29;20256;-62
2020/12/20 09:10:30;;;;;;;7.73;6.93;;;;;;;10.19;60.05;101687.63;6073730;29;20245;-62
2020/12/20 09:13:52;;;;;;;7.43;6.73;;;;;;;10.11;60.09;101691.06;6065752;29;20233;-61
2020/12/20 09:17:12;;;;;;;7.10;6.50;;;;;;;10.28;59.40;101701.59;6077448;29;20237;-62
2020/12/20 09:20:40;;;;;;;8.07;7.27;;;;;;;10.02;60.73;101713.56;6072781;29;20233;-62
2020/12/20 09:24:01;;;;;;;8.27;7.47;;;;;;;10.36;59.43;101700.78;6065337;29;20335;-61
2020/12/20 09:27:22;;;;;;;8.73;7.23;;;;;;;10.58;58.56;101706.13;6075831;29;20262;-62
2020/12/20 09:30:45;;;;;;;8.27;7.47;;;;;;;10.70;58.12;101697.50;6066686;29;20257;-60
2020/12/20 09:34:07;;;;;;;8.20;7.40;;;;;;;10.71;58.87;101694.03;6071308;29;20331;-62
2020/12/20 09:37:28;;;;;;;8.37;7.40;;;;;;;10.37;59.15;101710.38;6074781;29;20238;-62
2020/12/20 09:40:59;;;;;;;8.00;7.30;;;;;;;10.72;59.22;101704.47;6056742;29;20242;-61
2020/12/20 09:44:20;;;;;;;7.83;7.00;;;;;;;10.86;61.08;101709.72;6068809;29;20320;-63
2020/12/20 09:47:43;;;;;;;96.53;53.17;;;;;;;11.28;60.52;101712.47;6066842;29;20233;-66
2020/12/20 09:51:04;;;;;;;64.03;58.40;;;;;;;11.58;59.15;101704.69;6070132;29;20392;-64
2020/12/20 09:54:24;;;;;;;55.67;46.27;;;;;;;11.84;58.77;101701.22;6069860;29;20316;-65
2020/12/20 09:57:45;;;;;;;165.23;143.27;;;;;;;11.71;57.58;101697.75;6061795;29;20320;-65
2020/12/20 10:01:06;;;;;;;45.60;41.10;;;;;;;11.29;58.31;101698.56;6065135;29;20659;-63
2020/12/20 10:04:27;;;;;;;21.00;18.90;;;;;;;11.87;62.37;101703.84;6064191;29;20261;-62
2020/12/20 10:07:47;;;;;;;9.07;8.27;;;;;;;11.74;56.81;101689.91;6065547;29;20241;-62
2020/12/20 10:11:09;;;;;;;10.03;7.87;;;;;;;11.13;57.77;101692.44;6068501;29;20261;-64
2020/12/20 10:14:29;;;;;;;9.17;7.97;;;;;;;11.15;57.73;101696.78;6068498;29;20240;-63
2020/12/20 10:17:50;;;;;;;8.90;7.97;;;;;;;11.00;58.43;101691.53;6070619;29;20233;-64
2020/12/20 10:21:13;;;;;;;8.43;7.23;;;;;;;11.36;57.24;101695.97;6070510;29;20619;-63
2020/12/20 10:24:34;;;;;;;7.10;6.50;;;;;;;11.08;57.75;101689.81;6059169;29;20241;-63
2020/12/20 10:27:55;;;;;;;8.73;7.83;;;;;;;11.26;57.60;101699.41;6071785;29;20237;-62
2020/12/20 10:31:18;;;;;;;9.40;8.53;;;;;;;11.25;57.53;101697.69;6066426;29;20574;-63
2020/12/20 10:34:38;;;;;;;7.90;7.20;;;;;;;10.88;58.59;101681.94;6071172;29;20233;-65
2020/12/20 10:37:59;;;;;;;8.57;7.80;;;;;;;11.02;58.28;101693.28;6071622;29;20759;-64
2020/12/20 10:41:20;;;;;;;9.73;8.17;;;;;;;10.78;58.50;101686.25;6070681;29;20233;-63
2020/12/20 10:44:41;;;;;;;8.37;7.67;;;;;;;10.88;58.90;101681.09;6042517;29;20233;-64
2020/12/20 10:48:02;;;;;;;8.50;7.70;;;;;;;10.94;58.43;101675.88;6067993;29;20233;-62
2020/12/20 10:51:23;;;;;;;8.33;7.53;;;;;;;10.87;58.77;101664.56;6068571;29;20237;-63
2020/12/20 10:54:44;;;;;;;9.40;8.47;;;;;;;11.03;58.24;101678.50;6061914;29;20272;-64
2020/12/20 10:58:04;;;;;;;8.83;7.93;;;;;;;10.82;59.21;101676.72;6073411;29;20232;-64
2020/12/20 11:01:25;;;;;;;8.33;7.27;;;;;;;10.68;59.88;101673.16;6066701;29;20686;-64
2020/12/20 11:04:46;;;;;;;9.63;8.73;;;;;;;10.72;59.43;101670.59;6071807;29;20327;-64
2020/12/20 11:08:07;;;;;;;9.20;8.20;;;;;;;10.76;59.35;101658.44;6068961;29;20535;-64
2020/12/20 11:11:30;;;;;;;9.60;8.60;;;;;;;10.78;59.64;101665.41;6070913;29;20229;-64
2020/12/20 11:14:51;;;;;;;8.77;7.93;;;;;;;10.77;59.55;101668.00;6071563;29;20225;-63
2020/12/20 11:18:12;;;;;;;8.47;7.63;;;;;;;10.73;59.81;101654.09;6073220;29;20482;-64
2020/12/20 11:21:32;;;;;;;8.80;7.77;;;;;;;10.94;59.32;101655.03;6070196;29;20237;-64
2020/12/20 11:24:52;;;;;;;8.93;8.00;;;;;;;10.93;59.42;101659.34;6074097;29;20577;-63
2020/12/20 11:28:14;;;;;;;9.70;8.73;;;;;;;10.82;59.86;101659.34;6081419;29;20240;-63
2020/12/20 11:31:34;;;;;;;10.90;9.80;;;;;;;10.50;60.90;101658.34;6068913;29;20249;-64
2020/12/20 11:34:55;;;;;;;8.70;7.60;;;;;;;10.52;61.21;101673.09;6061421;29;20233;-64
2020/12/20 11:38:16;;;;;;;9.60;8.70;;;;;;;10.64;60.85;101657.53;6071108;29;20279;-64
2020/12/20 11:41:37;;;;;;;9.20;8.27;;;;;;;10.79;60.43;101664.53;6067981;29;20237;-63
2020/12/20 11:44:58;;;;;;;9.03;8.20;;;;;;;10.79;60.65;101664.53;6068422;29;20237;-65
2020/12/20 11:48:19;;;;;;;11.50;10.37;;;;;;;10.93;60.21;101664.56;6071122;29;20229;-63
2020/12/20 11:51:39;;;;;;;10.27;9.27;;;;;;;11.03;59.65;101657.63;6066991;29;20245;-63
2020/12/20 11:55:00;;;;;;;10.13;8.43;;;;;;;11.02;60.08;101659.38;6059220;29;20233;-64
2020/12/20 11:58:20;;;;;;;11.27;10.17;;;;;;;10.88;60.13;101647.19;6068398;29;20729;-64
2020/12/20 12:01:42;;;;;;;11.50;10.30;;;;;;;10.95;60.54;101652.44;6070270;29;20492;-63
2020/12/20 12:05:03;;;;;;;10.53;9.43;;;;;;;10.75;60.95;101651.50;6067811;29;20322;-63
2020/12/20 12:08:23;;;;;;;10.27;9.20;;;;;;;10.87;60.82;101648.06;6065981;29;20261;-64
2020/12/20 12:11:44;;;;;;;10.63;9.57;;;;;;;11.13;60.06;101643.78;6072465;29;20237;-64
2020/12/20 12:15:05;;;;;;;9.80;8.83;;;;;;;11.23;59.89;101653.34;6073434;29;20652;-64
2020/12/20 12:18:26;;;;;;;10.50;9.60;;;;;;;11.28;59.61;101653.34;6060266;29;20229;-63
2020/12/20 12:21:47;;;;;;;11.03;9.93;;;;;;;11.01;60.53;101646.34;6067927;29;20256;-62
2020/12/20 12:25:08;;;;;;;11.93;9.07;;;;;;;10.95;60.80;101648.94;6067743;29;20241;-63
2020/12/20 12:28:29;;;;;;;10.07;9.17;;;;;;;11.29;60.18;101656.84;6069699;29;20249;-64
2020/12/20 12:31:50;;;;;;;10.43;9.53;;;;;;;11.13;60.31;101645.53;6068460;29;20608;-64
2020/12/20 12:35:11;;;;;;;10.90;9.33;;;;;;;10.96;60.99;101640.28;6070653;29;20248;-63
2020/12/20 12:38:32;;;;;;;11.07;10.07;;;;;;;10.98;61.43;101642.00;6069546;29;20229;-64
2020/12/20 12:41:52;;;;;;;10.80;9.70;;;;;;;11.16;60.70;101645.50;6073666;29;20229;-64
2020/12/20 12:45:14;;;;;;;11.17;10.03;;;;;;;11.14;61.21;101639.44;6076389;29;20619;-63
2020/12/20 12:48:35;;;;;;;13.20;11.27;;;;;;;11.04;61.32;101636.81;6072779;29;20241;-63
2020/12/20 12:51:58;;;;;;;9.70;8.70;;;;;;;11.14;61.00;101648.13;6073675;29;20328;-63
2020/12/20 12:55:19;;;;;;;10.53;9.63;;;;;;;11.43;60.53;101642.06;6074182;29;20269;-64
2020/12/20 12:58:40;;;;;;;11.07;9.30;;;;;;;11.18;61.06;101639.44;6071539;29;20237;-63
2020/12/20 13:02:00;;;;;;;5.70;5.00;;;;;;;11.50;67.81;101646.44;6073606;29;20366;-62
2020/12/20 13:05:21;;;;;;;7.87;7.17;;;;;;;12.15;66.86;101635.94;6063208;29;20265;-61
2020/12/20 13:08:42;;;;;;;8.33;7.57;;;;;;;12.22;61.87;101637.69;6071501;29;20312;-62
2020/12/20 13:12:04;;;;;;;9.43;8.60;;;;;;;12.17;61.04;101644.63;6057176;29;20230;-63
2020/12/20 13:15:24;;;;;;;9.40;8.53;;;;;;;12.20;60.52;101642.03;6071850;29;20233;-62
2020/12/20 13:18:44;;;;;;;12.00;10.80;;;;;;;12.25;59.75;101645.47;6062301;29;20541;-63
2020/12/20 13:22:05;;;;;;;11.10;9.93;;;;;;;11.87;59.99;101646.41;6067310;29;20241;-67
2020/12/20 13:25:26;;;;;;;11.53;9.13;;;;;;;11.77;60.28;101645.56;6068637;29;20245;-70
2020/12/20 13:28:48;;;;;;;12.03;9.73;;;;;;;11.86;60.53;101647.28;6065596;29;20237;-59
2020/12/20 13:32:08;;;;;;;9.13;8.33;;;;;;;11.45;61.20;101648.16;6065733;29;20233;-71
2020/12/20 13:35:29;;;;;;;10.10;8.73;;;;;;;11.61;60.59;101655.13;6063641;29;20237;-67
2020/12/20 13:38:50;;;;;;;11.43;9.97;;;;;;;11.54;61.36;101645.56;6071069;29;20267;-62
2020/12/20 13:42:14;;;;;;;11.40;10.30;;;;;;;11.65;60.49;101647.28;6071682;29;20233;-67
2020/12/20 13:45:34;;;;;;;12.97;9.83;;;;;;;11.52;62.11;101642.09;6064976;29;20230;-64
2020/12/20 13:48:54;;;;;;;9.27;8.43;;;;;;;11.90;63.13;101646.41;6069991;29;20237;-62
2020/12/20 13:52:15;;;;;;;10.60;9.70;;;;;;;11.77;60.86;101644.69;6066512;29;20257;-62
2020/12/20 13:55:35;;;;;;;11.93;10.83;;;;;;;11.68;60.74;101662.97;6068439;29;20241;-64
2020/12/20 13:58:56;;;;;;;11.17;9.87;;;;;;;11.43;61.41;101665.53;6070273;29;20241;-68
2020/12/20 14:02:17;;;;;;;11.23;10.13;;;;;;;11.76;60.80;101667.28;6062637;29;20256;-67
2020/12/20 14:05:39;;;;;;;9.93;8.93;;;;;;;11.67;60.69;101674.25;6066247;29;20232;-65
2020/12/20 14:08:59;;;;;;;11.10;9.93;;;;;;;11.52;61.25;101667.31;6065011;29;20612;-61
2020/12/20 14:12:19;;;;;;;11.57;10.53;;;;;;;11.48;61.25;101662.97;6063726;29;20229;-68
2020/12/20 14:15:41;;;;;;;10.20;9.30;;;;;;;11.69;60.83;101672.50;6056787;29;20537;-66
2020/12/20 14:19:02;;;;;;;10.97;9.87;;;;;;;11.28;61.96;101669.00;6065797;29;20233;-66
2020/12/20 14:22:22;;;;;;;11.10;9.77;;;;;;;11.39;61.61;101663.81;6061567;29;20323;-65
2020/12/20 14:25:43;;;;;;;10.43;9.30;;;;;;;11.33;62.19;101663.81;6065450;29;20240;-64
2020/12/20 14:29:03;;;;;;;11.20;10.10;;;;;;;11.46;61.40;101677.72;6063890;29;20804;-64
2020/12/20 14:32:25;;;;;;;11.00;9.90;;;;;;;11.60;61.18;101665.56;6059737;29;20233;-62
2020/12/20 14:35:48;;;;;;;12.20;10.90;;;;;;;11.45;61.28;101669.03;6067209;29;20232;-63
2020/12/20 14:39:09;;;;;;;10.43;9.47;;;;;;;11.59;61.28;101677.75;6063538;29;20260;-64
2020/12/20 14:42:30;;;;;;;11.73;10.13;;;;;;;11.60;61.16;101679.47;6066353;29;20237;-64
2020/12/20 14:45:50;;;;;;;10.57;9.47;;;;;;;11.61;61.08;101688.16;6068908;29;20233;-64
2020/12/20 14:49:12;;;;;;;10.67;9.67;;;;;;;11.29;62.38;101685.53;6067114;29;20245;-63
2020/12/20 14:52:32;;;;;;;12.60;11.30;;;;;;;11.10;62.93;101687.22;6064354;29;20911;-64
2020/12/20 14:55:53;;;;;;;10.30;9.50;;;;;;;11.33;62.15;101689.88;6066107;29;20234;-64
2020/12/20 14:59:13;;;;;;;11.23;10.30;;;;;;;11.26;62.29;101685.50;6062188;29;20249;-65
2020/12/20 15:02:34;;;;;;;12.80;11.70;;;;;;;11.23;62.79;101683.78;6070532;29;21059;-65
2020/12/20 15:05:55;;;;;;;11.23;10.17;;;;;;;11.18;62.69;101683.75;6060194;29;20668;-64
2020/12/20 15:09:16;;;;;;;12.00;10.73;;;;;;;11.15;62.99;101685.50;6055884;29;20237;-64
2020/12/20 15:16:03;;;;;;;13.30;10.57;;;;;;;11.34;62.25;101679.47;6062720;29;20233;-63
2020/12/20 15:19:23;;;;;;;12.20;11.00;;;;;;;11.43;61.99;101684.66;6070642;29;20237;-64
2020/12/20 15:22:45;;;;;;;11.70;10.53;;;;;;;11.34;62.01;101687.28;6071276;29;20319;-64
2020/12/20 15:26:06;;;;;;;13.27;11.13;;;;;;;11.44;61.68;101685.56;6059360;29;20242;-64
2020/12/20 15:29:26;;;;;;;12.43;11.20;;;;;;;11.34;61.82;101692.50;6072670;29;20312;-65
2020/12/20 15:32:47;;;;;;;12.13;10.93;;;;;;;11.30;62.27;101692.47;6071316;29;20591;-63
2020/12/20 15:36:07;;;;;;;12.47;11.17;;;;;;;11.28;62.45;101696.81;6069044;29;20241;-64
2020/12/20 15:39:29;;;;;;;13.80;12.27;;;;;;;11.55;61.17;101706.41;6070783;29;20524;-64
2020/12/20 15:42:52;;;;;;;11.63;10.53;;;;;;;11.44;61.80;101709.03;6067517;29;20635;-64
2020/12/20 15:46:14;;;;;;;12.00;10.80;;;;;;;11.29;62.36;101706.38;6065168;29;20252;-64